createdAt,value
2023-05-05T00:01:34.348Z,59.75
2023-05-05T00:04:37.075Z,59.75
2023-05-05T00:07:39.800Z,59.93
2023-05-05T00:10:45.787Z,60.28
2023-05-05T00:13:48.575Z,60.62
2023-05-05T00:16:51.381Z,60.84
2023-05-05T00:19:54.206Z,61.18
2023-05-05T00:22:57.029Z,61.52
2023-05-05T00:25:59.786Z,61.81
2023-05-05T00:29:02.590Z,61.65
2023-05-05T00:32:05.449Z,61.61
2023-05-05T00:35:08.919Z,61.68
2023-05-05T00:38:11.689Z,61.69
2023-05-05T00:41:14.530Z,61.92
2023-05-05T00:44:17.263Z,62.17
2023-05-05T00:47:20.399Z,61.65
2023-05-05T00:50:26.806Z,61.53
2023-05-05T00:53:29.856Z,61.69
2023-05-05T00:56:33.287Z,62.02
2023-05-05T00:59:37.461Z,61.96
2023-05-05T01:02:41.440Z,61.95
2023-05-05T01:06:04.648Z,62.20
2023-05-05T01:09:20.564Z,62.08
2023-05-05T01:12:44.785Z,62.22
2023-05-05T01:15:53.515Z,62.31
2023-05-05T01:19:24.407Z,62.01
2023-05-05T01:22:52.668Z,62.42
2023-05-05T01:26:11.903Z,62.30
2023-05-05T01:29:52.633Z,62.51
2023-05-05T01:33:01.280Z,62.35
2023-05-05T01:36:10.653Z,62.60
2023-05-05T01:39:16.852Z,62.33
2023-05-05T01:42:22.692Z,62.20
2023-05-05T01:45:32.205Z,62.35
2023-05-05T01:48:37.002Z,62.11
2023-05-05T01:51:41.464Z,62.30
2023-05-05T01:54:46.633Z,62.32
2023-05-05T01:57:50.850Z,62.30
2023-05-05T02:00:56.733Z,62.35
2023-05-05T02:04:02.302Z,61.93
2023-05-05T02:07:06.291Z,62.22
2023-05-05T02:10:12.358Z,62.18
2023-05-05T02:13:17.448Z,62.19
2023-05-05T02:16:22.120Z,62.38
2023-05-05T02:19:30.988Z,62.31
2023-05-05T02:22:34.178Z,62.53
2023-05-05T02:25:44.198Z,62.45
2023-05-05T02:28:52.844Z,62.82
2023-05-05T02:32:02.511Z,63.02
2023-05-05T02:35:14.308Z,62.99
2023-05-05T02:38:19.563Z,63.08
2023-05-05T02:41:27.590Z,63.59
2023-05-05T02:44:33.145Z,64.06
2023-05-05T02:47:37.273Z,64.11
2023-05-05T02:50:41.389Z,64.62
2023-05-05T02:53:56.360Z,64.86
2023-05-05T02:57:00.592Z,64.91
2023-05-05T03:00:24.115Z,65.04
2023-05-05T03:03:55.995Z,65.00
2023-05-05T03:07:06.956Z,65.17
2023-05-05T03:10:17.734Z,65.09
2023-05-05T03:13:26.951Z,65.29
2023-05-05T03:16:32.176Z,65.27
2023-05-05T03:19:36.327Z,65.13
2023-05-05T03:22:39.360Z,65.38
2023-05-05T03:25:45.037Z,65.73
2023-05-05T03:28:52.672Z,65.80
2023-05-05T03:32:01.553Z,66.08
2023-05-05T03:35:05.508Z,66.19
2023-05-05T03:38:09.212Z,66.42
2023-05-05T03:41:12.017Z,66.11
2023-05-05T03:44:14.801Z,65.92
2023-05-05T03:47:17.654Z,65.88
2023-05-05T03:50:21.080Z,66.14
2023-05-05T03:53:24.730Z,65.73
2023-05-05T03:56:27.609Z,65.58
2023-05-05T03:59:30.409Z,65.43
2023-05-05T04:02:33.351Z,65.97
2023-05-05T04:05:38.063Z,66.45
2023-05-05T04:08:41.433Z,66.99
2023-05-05T04:11:44.232Z,67.40
2023-05-05T04:14:47.785Z,67.35
2023-05-05T04:17:50.898Z,67.49
2023-05-05T04:20:53.995Z,67.39
2023-05-05T04:23:58.496Z,67.43
2023-05-05T04:27:02.415Z,67.86
2023-05-05T04:30:06.902Z,67.46
2023-05-05T04:33:10.832Z,67.48
2023-05-05T04:36:13.788Z,67.64
2023-05-05T04:39:17.510Z,67.99
2023-05-05T04:42:20.388Z,68.21
2023-05-05T04:45:23.231Z,67.99
2023-05-05T04:48:26.210Z,68.21
2023-05-05T04:51:29.275Z,68.18
2023-05-05T04:54:36.415Z,68.26
2023-05-05T04:57:39.293Z,68.06
2023-05-05T05:00:42.380Z,67.78
2023-05-05T05:03:45.292Z,68.01
2023-05-05T05:06:48.407Z,68.13
2023-05-05T05:09:51.600Z,67.90
2023-05-05T05:12:54.513Z,67.50
2023-05-05T05:15:57.526Z,67.51
2023-05-05T05:19:01.638Z,67.91
2023-05-05T05:22:06.146Z,67.83
2023-05-05T05:25:10.490Z,68.21
2023-05-05T05:28:13.308Z,68.13
2023-05-05T05:31:21.129Z,68.08
2023-05-05T05:34:24.219Z,68.39
2023-05-05T05:37:31.143Z,68.17
2023-05-05T05:40:34.703Z,67.63
2023-05-05T05:43:38.085Z,66.41
2023-05-05T05:46:41.258Z,65.50
2023-05-05T05:49:44.190Z,64.65
2023-05-05T05:52:47.492Z,64.27
2023-05-05T05:55:51.320Z,63.57
2023-05-05T05:58:54.144Z,62.88
2023-05-05T06:01:57.328Z,62.53
2023-05-05T06:05:00.721Z,62.08
2023-05-05T06:08:03.861Z,61.78
2023-05-05T06:11:08.118Z,61.49
2023-05-05T06:14:10.962Z,60.95
2023-05-05T06:17:14.269Z,60.75
2023-05-05T06:20:17.368Z,60.39
2023-05-05T06:23:20.185Z,59.86
2023-05-05T06:26:27.584Z,59.71
2023-05-05T06:29:30.329Z,59.40
2023-05-05T06:32:33.267Z,57.78
2023-05-05T06:35:36.195Z,56.73
2023-05-05T06:38:38.895Z,56.38
2023-05-05T06:41:41.870Z,55.66
2023-05-05T06:44:44.597Z,55.16
2023-05-05T06:47:47.420Z,54.67
2023-05-05T06:50:50.332Z,54.15
2023-05-05T06:53:53.039Z,53.86
2023-05-05T06:56:57.525Z,53.39
2023-05-05T07:00:19.769Z,52.91
2023-05-05T07:03:22.563Z,52.57
2023-05-05T07:06:25.351Z,51.90
2023-05-05T07:09:28.123Z,50.99
2023-05-05T07:12:31.331Z,50.72
2023-05-05T07:15:34.643Z,49.96
2023-05-05T07:18:37.488Z,49.45
2023-05-05T07:21:40.210Z,49.37
2023-05-05T07:24:42.917Z,48.59
2023-05-05T07:27:45.866Z,48.40
2023-05-05T07:30:48.686Z,49.20
2023-05-05T07:33:51.734Z,47.95
2023-05-05T07:36:56.439Z,47.23
2023-05-05T07:39:59.150Z,47.39
2023-05-05T07:43:02.027Z,47.06
2023-05-05T07:46:04.872Z,46.66
2023-05-05T07:49:07.765Z,46.25
2023-05-05T07:52:10.636Z,45.33
2023-05-05T07:55:13.432Z,44.68
2023-05-05T07:58:16.325Z,44.87
2023-05-05T08:01:19.314Z,44.63
2023-05-05T08:04:22.150Z,45.15
2023-05-05T08:07:25.024Z,44.86
2023-05-05T08:10:27.838Z,43.97
2023-05-05T08:13:31.125Z,42.86
2023-05-05T08:16:34.486Z,42.77
2023-05-05T08:19:37.459Z,43.92
2023-05-05T08:22:42.036Z,42.82
2023-05-05T08:25:44.794Z,41.79
2023-05-05T08:28:48.694Z,40.22
2023-05-05T08:31:51.524Z,40.59
2023-05-05T08:34:54.463Z,40.49
2023-05-05T08:37:59.099Z,40.16
2023-05-05T08:41:02.149Z,40.08
2023-05-05T08:44:05.044Z,39.47
2023-05-05T08:47:11.198Z,38.42
2023-05-05T08:50:14.148Z,37.95
2023-05-05T08:53:21.937Z,37.79
2023-05-05T08:56:33.136Z,36.73
2023-05-05T08:59:37.287Z,36.90
2023-05-05T09:02:42.887Z,36.93
2023-05-05T09:05:45.897Z,36.77
2023-05-05T09:08:49.644Z,36.24
2023-05-05T09:11:53.877Z,35.47
2023-05-05T09:14:58.981Z,36.55
2023-05-05T09:18:02.462Z,35.89
2023-05-05T09:21:25.993Z,35.54
2023-05-05T09:24:28.895Z,36.12
2023-05-05T09:27:36.472Z,35.94
2023-05-05T09:30:41.181Z,35.03
2023-05-05T09:33:44.235Z,34.62
2023-05-05T09:36:48.931Z,33.63
2023-05-05T09:39:56.201Z,34.15
2023-05-05T09:43:02.963Z,33.89
2023-05-05T09:46:07.723Z,34.22
2023-05-05T09:49:23.401Z,33.90
2023-05-05T09:52:26.848Z,32.80
2023-05-05T09:55:33.375Z,32.93
2023-05-05T09:58:36.527Z,32.77
2023-05-05T10:01:39.533Z,32.17
2023-05-05T10:04:43.846Z,32.10
2023-05-05T10:07:48.106Z,32.74
2023-05-05T10:11:00.576Z,31.87
2023-05-05T10:14:06.520Z,31.40
2023-05-05T10:17:10.135Z,31.68
2023-05-05T10:20:14.433Z,29.71
2023-05-05T10:23:20.806Z,29.37
2023-05-05T10:26:26.733Z,30.13
2023-05-05T10:29:52.873Z,30.65
2023-05-05T10:33:26.721Z,31.40
2023-05-05T10:36:27.932Z,30.92
2023-05-05T10:39:31.531Z,30.88
2023-05-05T10:42:37.371Z,30.14
2023-05-05T10:45:41.512Z,30.34
2023-05-05T10:48:56.603Z,30.11
2023-05-05T10:52:12.716Z,30.76
2023-05-05T10:55:31.876Z,31.30
2023-05-05T10:58:58.339Z,30.65
2023-05-05T11:02:18.209Z,31.00
2023-05-05T11:05:23.799Z,31.04
2023-05-05T11:08:27.174Z,30.59
2023-05-05T11:12:02.956Z,30.34
2023-05-05T11:15:24.251Z,31.20
2023-05-05T11:18:43.305Z,31.88
2023-05-05T11:22:02.285Z,32.54
2023-05-05T11:25:37.528Z,32.37
2023-05-05T11:29:02.218Z,32.84
2023-05-05T11:32:15.886Z,33.09
2023-05-05T11:35:18.983Z,33.30
2023-05-05T11:38:44.675Z,33.55
2023-05-05T11:42:22.556Z,34.00
2023-05-05T11:45:25.793Z,34.59
2023-05-05T11:48:28.585Z,34.35
2023-05-05T11:51:31.881Z,34.31
2023-05-05T11:54:36.747Z,34.10
2023-05-05T11:57:39.565Z,34.56
2023-05-05T12:00:42.340Z,35.19
2023-05-05T12:03:46.005Z,35.58
2023-05-05T12:06:49.378Z,35.31
2023-05-05T12:09:52.978Z,34.85
2023-05-05T12:12:56.100Z,34.35
2023-05-05T12:16:16.537Z,35.35
2023-05-05T12:19:19.302Z,35.71
2023-05-05T12:22:26.464Z,36.13
2023-05-05T12:25:36.995Z,34.93
2023-05-05T12:28:46.482Z,35.22
2023-05-05T12:31:49.504Z,34.71
2023-05-05T12:34:54.880Z,34.62
2023-05-05T12:37:58.584Z,34.98
2023-05-05T12:41:02.526Z,35.22
2023-05-05T12:44:05.435Z,35.54
2023-05-05T12:47:08.718Z,36.24
2023-05-05T12:50:11.552Z,36.58
2023-05-05T12:53:24.899Z,36.34
2023-05-05T12:56:34.911Z,37.83
2023-05-05T12:59:37.697Z,38.24
2023-05-05T13:02:40.657Z,38.16
2023-05-05T13:05:43.743Z,38.89
2023-05-05T13:08:46.720Z,39.14
2023-05-05T13:11:49.496Z,39.35
2023-05-05T13:14:52.212Z,39.91
2023-05-05T13:18:01.704Z,39.93
2023-05-05T13:21:04.770Z,40.13
2023-05-05T13:24:25.325Z,40.39
2023-05-05T13:27:30.629Z,39.36
2023-05-05T13:30:33.504Z,39.50
2023-05-05T13:33:36.264Z,38.66
2023-05-05T13:36:39.029Z,38.87
2023-05-05T13:39:41.832Z,39.24
2023-05-05T13:42:44.618Z,39.78
2023-05-05T13:45:47.372Z,38.33
2023-05-05T13:48:52.498Z,39.05
2023-05-05T13:51:59.159Z,39.04
2023-05-05T13:55:01.874Z,39.51
2023-05-05T13:58:04.719Z,39.46
2023-05-05T14:01:07.487Z,38.46
2023-05-05T14:04:10.594Z,38.13
2023-05-05T14:07:13.435Z,39.28
2023-05-05T14:10:16.217Z,38.56
2023-05-05T14:13:19.206Z,38.78
2023-05-05T14:16:22.117Z,38.52
2023-05-05T14:19:25.061Z,38.78
2023-05-05T14:22:27.804Z,38.59
2023-05-05T14:25:30.503Z,38.98
2023-05-05T14:28:33.305Z,38.60
2023-05-05T14:31:36.839Z,39.02
2023-05-05T14:34:39.794Z,39.71
2023-05-05T14:37:42.568Z,40.08
2023-05-05T14:40:45.389Z,40.16
2023-05-05T14:43:48.083Z,41.13
2023-05-05T14:46:51.347Z,40.85
2023-05-05T14:49:54.210Z,41.46
2023-05-05T14:52:56.992Z,41.91
2023-05-05T14:56:01.080Z,42.31
2023-05-05T14:59:03.813Z,42.51
2023-05-05T15:02:07.245Z,42.78
2023-05-05T15:05:10.387Z,43.16
2023-05-05T15:08:14.600Z,43.58
2023-05-05T15:11:17.363Z,43.26
2023-05-05T15:14:20.160Z,43.91
2023-05-05T15:17:23.008Z,44.01
2023-05-05T15:20:25.844Z,43.46
2023-05-05T15:23:28.601Z,43.78
2023-05-05T15:26:31.963Z,44.26
2023-05-05T15:29:34.853Z,44.49
2023-05-05T15:32:37.993Z,44.77
2023-05-05T15:35:40.711Z,45.08
2023-05-05T15:38:43.623Z,44.82
2023-05-05T15:41:46.383Z,45.19
2023-05-05T15:44:49.164Z,45.35
2023-05-05T15:47:52.972Z,45.00
2023-05-05T15:50:55.918Z,46.07
2023-05-05T15:53:59.543Z,45.80
2023-05-05T15:57:03.219Z,45.72
2023-05-05T16:00:07.979Z,45.88
2023-05-05T16:03:10.782Z,46.34
2023-05-05T16:06:13.828Z,46.66
2023-05-05T16:09:16.607Z,46.27
2023-05-05T16:12:20.989Z,46.34
2023-05-05T16:15:23.772Z,46.73
2023-05-05T16:18:26.837Z,46.99
2023-05-05T16:21:29.561Z,47.22
2023-05-05T16:24:32.472Z,47.45
2023-05-05T16:27:35.549Z,47.23
2023-05-05T16:30:39.837Z,47.99
2023-05-05T16:33:43.836Z,47.76
2023-05-05T16:36:46.982Z,47.78
2023-05-05T16:39:49.685Z,48.36
2023-05-05T16:42:52.401Z,48.36
2023-05-05T16:45:55.173Z,48.64
2023-05-05T16:48:57.953Z,48.86
2023-05-05T16:52:00.820Z,48.87
2023-05-05T16:55:04.916Z,48.96
2023-05-05T16:58:08.030Z,49.41
2023-05-05T17:01:10.767Z,49.33
2023-05-05T17:04:13.634Z,49.62
2023-05-05T17:07:16.395Z,49.76
2023-05-05T17:10:19.201Z,50.24
2023-05-05T17:13:23.509Z,50.25
2023-05-05T17:16:26.386Z,50.30
2023-05-05T17:19:29.240Z,50.57
2023-05-05T17:22:32.246Z,50.88
2023-05-05T17:25:35.937Z,50.89
2023-05-05T17:28:38.708Z,51.07
2023-05-05T17:31:42.117Z,51.22
2023-05-05T17:34:45.017Z,51.24
2023-05-05T17:37:47.894Z,51.58
2023-05-05T17:40:50.784Z,51.93
2023-05-05T17:43:53.549Z,52.04
2023-05-05T17:46:56.327Z,52.10
2023-05-05T17:49:59.550Z,52.66
2023-05-05T17:53:02.288Z,52.59
2023-05-05T17:56:07.959Z,52.97
2023-05-05T17:59:11.637Z,53.21
2023-05-05T18:02:14.422Z,53.27
2023-05-05T18:05:17.366Z,53.18
2023-05-05T18:08:20.157Z,53.63
2023-05-05T18:11:27.654Z,53.57
2023-05-05T18:14:31.719Z,54.00
2023-05-05T18:17:34.604Z,53.99
2023-05-05T18:20:37.472Z,54.31
2023-05-05T18:23:40.617Z,54.37
2023-05-05T18:26:43.496Z,54.45
2023-05-05T18:29:46.275Z,54.63
2023-05-05T18:32:49.116Z,54.90
2023-05-05T18:35:51.968Z,55.03
2023-05-05T18:38:54.773Z,54.89
2023-05-05T18:41:57.515Z,54.96
2023-05-05T18:45:00.258Z,54.95
2023-05-05T18:48:03.275Z,55.21
2023-05-05T18:51:07.556Z,55.22
2023-05-05T18:54:10.328Z,55.40
2023-05-05T18:57:13.060Z,55.49
2023-05-05T19:00:15.918Z,55.61
2023-05-05T19:03:19.736Z,55.61
2023-05-05T19:06:22.555Z,55.61
2023-05-05T19:09:25.513Z,55.94
2023-05-05T19:12:28.233Z,55.99
2023-05-05T19:15:32.459Z,56.34
2023-05-05T19:18:35.232Z,56.17
2023-05-05T19:21:38.638Z,56.62
2023-05-05T19:24:41.345Z,56.25
2023-05-05T19:27:44.380Z,56.32
2023-05-05T19:30:48.710Z,56.91
2023-05-05T19:33:51.653Z,56.79
2023-05-05T19:36:54.396Z,56.78
2023-05-05T19:39:57.285Z,56.94
2023-05-05T19:42:59.999Z,56.78
2023-05-05T19:46:02.947Z,57.24
2023-05-05T19:49:06.257Z,57.17
2023-05-05T19:52:09.051Z,57.13
2023-05-05T19:55:13.253Z,57.06
2023-05-05T19:58:16.131Z,57.36
2023-05-05T20:01:18.900Z,57.50
2023-05-05T20:04:21.682Z,57.54
2023-05-05T20:07:24.444Z,57.65
2023-05-05T20:10:27.167Z,57.89
2023-05-05T20:13:29.929Z,57.94
2023-05-05T20:16:33.703Z,58.00
2023-05-05T20:19:36.520Z,58.14
2023-05-05T20:22:40.605Z,58.18
2023-05-05T20:25:43.778Z,58.23
2023-05-05T20:28:46.550Z,58.07
2023-05-05T20:31:49.475Z,58.04
2023-05-05T20:34:52.395Z,58.27
2023-05-05T20:37:55.278Z,58.13
2023-05-05T20:40:58.151Z,58.32
2023-05-05T20:44:01.028Z,58.50
2023-05-05T20:47:04.582Z,58.33
2023-05-05T20:50:08.570Z,58.54
2023-05-05T20:53:15.399Z,58.71
2023-05-05T20:56:18.110Z,58.66
2023-05-05T20:59:20.860Z,58.63
2023-05-05T21:02:23.680Z,58.68
2023-05-05T21:05:26.798Z,58.86
2023-05-05T21:08:30.707Z,58.95
2023-05-05T21:11:33.458Z,59.07
2023-05-05T21:14:36.222Z,59.23
2023-05-05T21:17:39.014Z,59.16
2023-05-05T21:20:41.798Z,59.44
2023-05-05T21:23:47.883Z,59.56
2023-05-05T21:26:50.689Z,59.82
2023-05-05T21:29:53.432Z,60.03
2023-05-05T21:32:56.252Z,60.17
2023-05-05T21:35:59.178Z,59.85
2023-05-05T21:39:02.081Z,60.01
2023-05-05T21:42:04.813Z,60.22
2023-05-05T21:45:08.284Z,60.25
2023-05-05T21:48:11.081Z,60.38
2023-05-05T21:51:13.807Z,61.08
2023-05-05T21:54:16.972Z,60.84
2023-05-05T21:57:19.783Z,60.78
2023-05-05T22:00:22.762Z,61.06
2023-05-05T22:03:26.286Z,61.54
2023-05-05T22:06:29.124Z,61.49
2023-05-05T22:09:31.989Z,61.28
2023-05-05T22:12:34.778Z,61.82
2023-05-05T22:15:46.092Z,61.93
2023-05-05T22:18:50.424Z,62.06
2023-05-05T22:21:53.426Z,62.27
2023-05-05T22:24:56.192Z,62.30
2023-05-05T22:27:59.027Z,62.36
2023-05-05T22:31:01.976Z,62.46
2023-05-05T22:34:04.892Z,62.77
2023-05-05T22:37:07.657Z,62.87
2023-05-05T22:40:13.001Z,63.12
2023-05-05T22:43:15.874Z,62.93
2023-05-05T22:46:18.697Z,63.07
2023-05-05T22:49:22.755Z,63.14
2023-05-05T22:52:28.212Z,63.46
2023-05-05T22:55:30.939Z,63.48
2023-05-05T22:58:33.755Z,63.77
2023-05-05T23:01:36.701Z,64.16
2023-05-05T23:04:39.530Z,64.25
2023-05-05T23:07:42.350Z,64.15
2023-05-05T23:10:45.097Z,64.48
2023-05-05T23:13:47.885Z,64.44
2023-05-05T23:16:50.892Z,64.70
2023-05-05T23:19:53.676Z,65.08
2023-05-05T23:22:56.467Z,65.32
2023-05-05T23:25:59.253Z,65.63
2023-05-05T23:29:01.970Z,65.93
2023-05-05T23:32:05.565Z,65.89
2023-05-05T23:35:09.137Z,65.79
2023-05-05T23:38:12.179Z,66.11
2023-05-05T23:41:14.947Z,66.20
2023-05-05T23:44:17.735Z,66.26
2023-05-05T23:47:20.473Z,66.18
2023-05-05T23:50:23.310Z,66.40
2023-05-05T23:53:26.088Z,66.94
2023-05-05T23:56:28.832Z,66.45
2023-05-05T23:59:31.644Z,66.65
